createdAt,value
2022-12-03T00:00:39.793Z,-0.33
2022-12-03T00:03:27.829Z,-0.33
2022-12-03T00:05:58.350Z,-0.34
2022-12-03T00:08:28.631Z,-0.38
2022-12-03T00:10:58.957Z,-0.36
2022-12-03T00:13:30.661Z,-0.32
2022-12-03T00:16:01.797Z,-0.46
2022-12-03T00:18:34.683Z,-0.37
2022-12-03T00:21:06.755Z,-0.47
2022-12-03T00:23:42.017Z,-0.46
2022-12-03T00:26:12.710Z,-0.39
2022-12-03T00:28:43.054Z,-0.39
2022-12-03T00:31:12.994Z,-0.47
2022-12-03T00:33:46.035Z,-0.44
2022-12-03T00:36:16.119Z,-0.48
2022-12-03T00:38:46.455Z,-0.49
2022-12-03T00:41:16.372Z,-0.44
2022-12-03T00:43:46.630Z,-0.49
2022-12-03T00:46:21.157Z,-0.55
2022-12-03T00:48:55.859Z,-0.51
2022-12-03T00:51:25.752Z,-0.51
2022-12-03T00:53:56.046Z,-0.45
2022-12-03T00:56:26.232Z,-0.49
2022-12-03T00:58:56.652Z,-0.47
2022-12-03T01:01:28.532Z,-0.46
2022-12-03T01:04:01.845Z,-0.47
2022-12-03T01:06:31.943Z,-0.56
2022-12-03T01:09:02.293Z,-0.63
2022-12-03T01:11:41.475Z,-0.61
2022-12-03T01:14:14.007Z,-0.70
2022-12-03T01:16:44.777Z,-0.61
2022-12-03T01:19:18.350Z,-0.43
2022-12-03T01:21:50.181Z,-0.42
2022-12-03T01:24:21.436Z,-0.49
2022-12-03T01:26:51.553Z,-0.49
2022-12-03T01:29:21.777Z,-0.45
2022-12-03T01:32:04.324Z,-0.41
2022-12-03T01:34:37.445Z,-0.42
2022-12-03T01:37:07.343Z,-0.54
2022-12-03T01:39:37.679Z,-0.62
2022-12-03T01:42:08.119Z,-0.61
2022-12-03T01:44:41.275Z,-0.54
2022-12-03T01:47:17.822Z,-0.59
2022-12-03T01:49:53.560Z,-0.51
2022-12-03T01:52:27.302Z,-0.60
2022-12-03T01:55:00.631Z,-0.59
2022-12-03T01:57:36.183Z,-0.50
2022-12-03T02:00:08.470Z,-0.50
2022-12-03T02:02:39.728Z,-0.58
2022-12-03T02:05:19.377Z,-0.49
2022-12-03T02:07:49.853Z,-0.66
2022-12-03T02:10:24.187Z,-0.62
2022-12-03T02:12:59.883Z,-0.47
2022-12-03T02:15:30.316Z,-0.47
2022-12-03T02:18:00.496Z,-0.63
2022-12-03T02:20:36.009Z,-0.51
2022-12-03T02:23:14.752Z,-0.63
2022-12-03T02:25:47.710Z,-0.51
2022-12-03T02:28:17.639Z,-0.58
2022-12-03T02:30:47.870Z,-0.57
2022-12-03T02:33:17.927Z,-0.51
2022-12-03T02:35:48.350Z,-0.53
2022-12-03T02:38:21.250Z,-0.63
2022-12-03T02:40:58.415Z,-0.59
2022-12-03T02:43:26.263Z,-0.66
2022-12-03T02:45:59.059Z,-0.60
2022-12-03T02:48:32.565Z,-0.65
2022-12-03T02:51:05.198Z,-0.56
2022-12-03T02:53:42.334Z,-0.53
2022-12-03T02:56:17.676Z,-0.47
2022-12-03T02:58:50.147Z,-0.71
2022-12-03T03:01:20.871Z,-0.67
2022-12-03T03:03:51.892Z,-0.68
2022-12-03T03:06:23.595Z,-0.58
2022-12-03T03:08:54.236Z,-0.59
2022-12-03T03:11:27.898Z,-0.54
2022-12-03T03:13:58.292Z,-0.55
2022-12-03T03:16:28.599Z,-0.62
2022-12-03T03:18:58.588Z,-0.60
2022-12-03T03:21:28.942Z,-0.63
2022-12-03T03:23:58.805Z,-0.59
2022-12-03T03:26:31.734Z,-0.62
2022-12-03T03:29:03.153Z,-0.79
2022-12-03T03:31:33.514Z,-0.84
2022-12-03T03:34:03.630Z,-0.76
2022-12-03T03:36:34.494Z,-0.79
2022-12-03T03:39:04.608Z,-0.88
2022-12-03T03:41:38.480Z,-0.72
2022-12-03T03:44:09.948Z,-0.66
2022-12-03T03:46:41.213Z,-0.66
2022-12-03T03:49:11.911Z,-0.69
2022-12-03T03:51:42.467Z,-0.74
2022-12-03T03:54:12.446Z,-0.68
2022-12-03T03:56:45.532Z,-0.68
2022-12-03T03:59:16.345Z,-0.61
2022-12-03T04:01:47.282Z,-0.63
2022-12-03T04:04:22.094Z,-0.63
2022-12-03T04:06:52.481Z,-0.75
2022-12-03T04:09:22.390Z,-0.74
2022-12-03T04:12:07.960Z,-0.77
2022-12-03T04:14:38.094Z,-0.74
2022-12-03T04:17:08.645Z,-0.75
2022-12-03T04:19:39.023Z,-0.68
2022-12-03T04:22:22.192Z,-0.69
2022-12-03T04:25:12.602Z,-0.69
2022-12-03T04:27:58.197Z,-0.76
2022-12-03T04:30:28.458Z,-0.83
2022-12-03T04:33:20.288Z,-0.77
2022-12-03T04:35:50.742Z,-0.90
2022-12-03T04:38:21.029Z,-0.97
2022-12-03T04:41:06.617Z,-0.81
2022-12-03T04:44:00.072Z,-0.78
2022-12-03T04:46:30.029Z,-0.85
2022-12-03T04:49:00.400Z,-0.93
2022-12-03T04:51:30.574Z,-0.89
2022-12-03T04:54:00.941Z,-0.93
2022-12-03T04:56:30.892Z,-0.81
2022-12-03T04:59:03.773Z,-0.83
2022-12-03T05:01:33.856Z,-0.89
2022-12-03T05:04:04.163Z,-0.81
2022-12-03T05:06:34.121Z,-0.73
2022-12-03T05:09:04.614Z,-0.69
2022-12-03T05:11:34.896Z,-0.67
2022-12-03T05:14:08.282Z,-0.75
2022-12-03T05:16:38.358Z,-0.76
2022-12-03T05:19:10.022Z,-0.83
2022-12-03T05:21:37.347Z,-0.78
2022-12-03T05:24:08.641Z,-0.74
2022-12-03T05:26:38.780Z,-0.80
2022-12-03T05:29:11.592Z,-0.84
2022-12-03T05:31:41.514Z,-0.79
2022-12-03T05:34:11.763Z,-0.95
2022-12-03T05:36:41.692Z,-0.85
2022-12-03T05:39:11.909Z,-0.84
2022-12-03T05:41:54.268Z,-0.89
2022-12-03T05:44:27.107Z,-0.77
2022-12-03T05:46:57.026Z,-0.84
2022-12-03T05:49:27.206Z,-0.87
2022-12-03T05:51:58.840Z,-0.91
2022-12-03T05:54:29.288Z,-0.84
2022-12-03T05:56:59.210Z,-0.85
2022-12-03T05:59:32.043Z,-0.87
2022-12-03T06:02:02.659Z,-1.01
2022-12-03T06:04:32.947Z,-0.93
2022-12-03T06:07:02.942Z,-0.97
2022-12-03T06:09:33.589Z,-1.04
2022-12-03T06:12:09.572Z,-0.89
2022-12-03T06:14:45.805Z,-0.94
2022-12-03T06:17:15.724Z,-1.02
2022-12-03T06:19:45.965Z,-1.11
2022-12-03T06:22:16.045Z,-1.03
2022-12-03T06:24:46.309Z,-0.93
2022-12-03T06:27:16.386Z,-0.93
2022-12-03T06:29:49.351Z,-0.91
2022-12-03T06:32:19.332Z,-0.85
2022-12-03T06:34:49.603Z,-0.95
2022-12-03T06:37:19.869Z,-1.05
2022-12-03T06:39:50.470Z,-1.01
2022-12-03T06:42:20.729Z,-1.02
2022-12-03T06:44:54.207Z,-0.96
2022-12-03T06:47:24.697Z,-1.06
2022-12-03T06:49:55.314Z,-0.96
2022-12-03T06:52:25.523Z,-0.94
2022-12-03T06:54:56.282Z,-0.94
2022-12-03T06:57:26.914Z,-1.17
2022-12-03T07:00:00.194Z,-1.09
2022-12-03T07:02:30.508Z,-1.02
2022-12-03T07:05:01.166Z,-0.95
2022-12-03T07:07:31.427Z,-0.90
2022-12-03T07:10:02.065Z,-0.91
2022-12-03T07:12:32.785Z,-0.91
2022-12-03T07:15:08.512Z,-0.99
2022-12-03T07:17:38.775Z,-1.07
2022-12-03T07:20:10.946Z,-1.18
2022-12-03T07:22:41.151Z,-1.11
2022-12-03T07:25:12.234Z,-0.98
2022-12-03T07:27:42.488Z,-0.97
2022-12-03T07:30:18.067Z,-0.96
2022-12-03T07:32:48.265Z,-0.98
2022-12-03T07:35:18.869Z,-0.95
2022-12-03T07:37:48.858Z,-0.93
2022-12-03T07:40:21.003Z,-1.06
2022-12-03T07:42:53.395Z,-1.04
2022-12-03T07:45:26.350Z,-1.05
2022-12-03T07:47:58.839Z,-0.97
2022-12-03T07:50:29.217Z,-1.07
2022-12-03T07:52:59.264Z,-1.08
2022-12-03T07:55:29.660Z,-0.92
2022-12-03T07:57:59.576Z,-0.97
2022-12-03T08:00:32.537Z,-0.87
2022-12-03T08:03:02.497Z,-0.85
2022-12-03T08:05:33.045Z,-0.87
2022-12-03T08:08:03.001Z,-0.84
2022-12-03T08:10:36.213Z,-0.88
2022-12-03T08:13:13.391Z,-0.89
2022-12-03T08:15:46.703Z,-0.92
2022-12-03T08:18:19.529Z,-0.87
2022-12-03T08:20:51.929Z,-0.89
2022-12-03T08:23:23.691Z,-0.96
2022-12-03T08:25:55.393Z,-0.96
2022-12-03T08:28:27.108Z,-0.91
2022-12-03T08:31:05.317Z,-0.90
2022-12-03T08:33:39.724Z,-0.91
2022-12-03T08:36:15.880Z,-1.04
2022-12-03T08:38:52.297Z,-0.88
2022-12-03T08:41:43.997Z,-0.89
2022-12-03T08:44:30.278Z,-0.82
2022-12-03T08:47:16.444Z,-0.97
2022-12-03T08:49:50.182Z,-0.89
2022-12-03T08:52:23.215Z,-0.91
2022-12-03T08:54:58.944Z,-0.80
2022-12-03T08:57:32.359Z,-0.83
2022-12-03T09:00:06.454Z,-0.80
2022-12-03T09:02:39.309Z,-0.78
2022-12-03T09:05:18.461Z,-0.71
2022-12-03T09:07:48.881Z,-0.73
2022-12-03T09:10:19.113Z,-0.75
2022-12-03T09:12:49.446Z,-0.73
2022-12-03T09:15:19.691Z,-0.69
2022-12-03T09:17:52.587Z,-0.70
2022-12-03T09:20:22.617Z,-0.68
2022-12-03T09:22:53.458Z,-0.74
2022-12-03T09:25:23.392Z,-0.75
2022-12-03T09:27:53.723Z,-0.78
2022-12-03T09:30:23.713Z,-0.69
2022-12-03T09:32:56.873Z,-0.78
2022-12-03T09:35:27.847Z,-0.79
2022-12-03T09:38:01.024Z,-0.72
2022-12-03T09:40:33.246Z,-0.72
2022-12-03T09:43:03.938Z,-0.70
2022-12-03T09:45:34.001Z,-0.79
2022-12-03T09:48:07.655Z,-0.77
2022-12-03T09:50:51.983Z,-0.67
2022-12-03T09:53:26.007Z,-0.76
2022-12-03T09:56:01.441Z,-0.64
2022-12-03T09:58:34.929Z,-0.70
2022-12-03T10:01:05.134Z,-0.62
2022-12-03T10:03:41.049Z,-0.70
2022-12-03T10:06:13.121Z,-0.74
2022-12-03T10:08:43.441Z,-0.66
2022-12-03T10:11:13.385Z,-0.60
2022-12-03T10:13:56.488Z,-0.65
2022-12-03T10:16:30.498Z,-0.65
2022-12-03T10:19:05.397Z,-0.62
2022-12-03T10:21:40.003Z,-0.66
2022-12-03T10:24:36.141Z,-0.63
2022-12-03T10:27:25.462Z,-0.65
2022-12-03T10:30:01.209Z,-0.67
2022-12-03T10:32:43.709Z,-0.61
2022-12-03T10:35:23.319Z,-0.55
2022-12-03T10:38:12.389Z,-0.54
2022-12-03T10:40:42.875Z,-0.46
2022-12-03T10:43:18.771Z,-0.42
2022-12-03T10:45:50.462Z,-0.47
2022-12-03T10:48:27.506Z,-0.47
2022-12-03T10:51:24.371Z,-0.41
2022-12-03T10:54:00.754Z,-0.36
2022-12-03T10:56:32.445Z,-0.42
2022-12-03T10:59:03.156Z,-0.44
2022-12-03T11:01:37.324Z,-0.40
2022-12-03T11:04:22.590Z,-0.48
2022-12-03T11:07:06.269Z,-0.43
2022-12-03T11:10:02.820Z,-0.44
2022-12-03T11:12:38.141Z,-0.41
2022-12-03T11:15:22.235Z,-0.36
2022-12-03T11:18:02.471Z,-0.41
2022-12-03T11:21:10.376Z,-0.37
2022-12-03T11:24:31.479Z,-0.34
2022-12-03T11:27:30.760Z,-0.36
2022-12-03T11:30:03.253Z,-0.35
2022-12-03T11:33:11.506Z,-0.35
2022-12-03T11:36:36.397Z,-0.40
2022-12-03T11:39:11.183Z,-0.46
2022-12-03T11:41:41.795Z,-0.40
2022-12-03T11:44:34.149Z,-0.38
2022-12-03T11:47:16.765Z,-0.34
2022-12-03T11:49:51.076Z,-0.37
2022-12-03T11:52:25.464Z,-0.29
2022-12-03T11:55:01.734Z,-0.27
2022-12-03T11:57:43.300Z,-0.26
2022-12-03T12:00:25.432Z,-0.33
2022-12-03T12:03:00.889Z,-0.37
2022-12-03T12:05:35.618Z,-0.50
2022-12-03T12:08:06.449Z,-0.51
2022-12-03T12:10:48.545Z,-0.48
2022-12-03T12:13:51.915Z,-0.42
2022-12-03T12:16:53.076Z,-0.40
2022-12-03T12:19:54.369Z,-0.33
2022-12-03T12:22:33.517Z,-0.30
2022-12-03T12:25:05.141Z,-0.28
2022-12-03T12:27:39.384Z,-0.31
2022-12-03T12:30:12.563Z,-0.40
2022-12-03T12:32:49.179Z,-0.39
2022-12-03T12:35:26.204Z,-0.42
2022-12-03T12:38:00.197Z,-0.44
2022-12-03T12:40:38.598Z,-0.43
2022-12-03T12:43:24.892Z,-0.28
2022-12-03T12:45:58.077Z,-0.21
2022-12-03T12:48:38.274Z,-0.12
2022-12-03T12:51:14.686Z,-0.15
2022-12-03T12:53:53.827Z,-0.09
2022-12-03T12:56:27.547Z,-0.19
2022-12-03T12:58:57.576Z,-0.35
2022-12-03T13:01:47.937Z,-0.28
2022-12-03T13:04:22.183Z,-0.30
2022-12-03T13:06:55.059Z,-0.29
2022-12-03T13:09:27.261Z,-0.33
2022-12-03T13:12:00.686Z,-0.32
2022-12-03T13:14:37.776Z,-0.35
2022-12-03T13:17:16.747Z,-0.36
2022-12-03T13:19:55.848Z,-0.30
2022-12-03T13:22:31.364Z,-0.22
2022-12-03T13:25:32.622Z,-0.38
2022-12-03T13:28:07.922Z,-0.31
2022-12-03T13:30:37.950Z,-0.24
2022-12-03T13:33:16.114Z,-0.22
2022-12-03T13:35:58.866Z,-0.23
2022-12-03T13:38:30.861Z,-0.26
2022-12-03T13:41:06.882Z,-0.45
2022-12-03T13:43:45.482Z,-0.40
2022-12-03T13:46:19.086Z,-0.34
2022-12-03T13:48:56.367Z,-0.35
2022-12-03T13:51:37.921Z,-0.39
2022-12-03T13:54:25.616Z,-0.41
2022-12-03T13:57:02.471Z,-0.35
2022-12-03T13:59:32.519Z,-0.20
2022-12-03T14:02:02.885Z,-0.12
2022-12-03T14:04:33.190Z,-0.16
2022-12-03T14:07:07.586Z,-0.19
2022-12-03T14:09:37.529Z,-0.33
2022-12-03T14:12:20.934Z,-0.30
2022-12-03T14:14:51.002Z,-0.32
2022-12-03T14:17:23.723Z,-0.35
2022-12-03T14:19:54.304Z,-0.33
2022-12-03T14:22:27.508Z,-0.36
2022-12-03T14:24:59.656Z,-0.41
2022-12-03T14:27:30.109Z,-0.55
2022-12-03T14:30:00.182Z,-0.41
2022-12-03T14:32:30.443Z,-0.50
2022-12-03T14:35:03.876Z,-0.45
2022-12-03T14:37:39.650Z,-0.38
2022-12-03T14:40:13.183Z,-0.47
2022-12-03T14:42:45.732Z,-0.37
2022-12-03T14:45:15.613Z,-0.31
2022-12-03T14:47:45.862Z,-0.39
2022-12-03T14:50:18.196Z,-0.37
2022-12-03T14:52:53.956Z,-0.47
2022-12-03T14:55:24.039Z,-0.40
2022-12-03T14:57:55.601Z,-0.34
2022-12-03T15:00:25.770Z,-0.30
2022-12-03T15:02:56.170Z,-0.37
2022-12-03T15:05:37.747Z,-0.30
2022-12-03T15:08:11.258Z,-0.29
2022-12-03T15:10:41.225Z,-0.30
2022-12-03T15:13:11.520Z,-0.28
2022-12-03T15:15:41.579Z,-0.33
2022-12-03T15:18:11.819Z,-0.34
2022-12-03T15:20:41.858Z,-0.36
2022-12-03T15:23:20.767Z,-0.30
2022-12-03T15:26:00.919Z,-0.26
2022-12-03T15:28:31.414Z,-0.25
2022-12-03T15:31:01.391Z,-0.26
2022-12-03T15:33:34.235Z,-0.34
2022-12-03T15:36:07.739Z,-0.37
2022-12-03T15:38:40.597Z,-0.32
2022-12-03T15:41:23.674Z,-0.40
2022-12-03T15:43:57.943Z,-0.35
2022-12-03T15:46:31.471Z,-0.36
2022-12-03T15:49:02.372Z,-0.36
2022-12-03T15:51:32.483Z,-0.33
2022-12-03T15:54:06.463Z,-0.32
2022-12-03T15:56:37.865Z,-0.35
2022-12-03T15:59:08.475Z,-0.36
2022-12-03T16:01:42.295Z,-0.29
2022-12-03T16:04:17.515Z,-0.32
2022-12-03T16:06:51.326Z,-0.35
2022-12-03T16:09:27.762Z,-0.35
2022-12-03T16:12:02.286Z,-0.45
2022-12-03T16:14:33.044Z,-0.36
2022-12-03T16:17:07.864Z,-0.38
2022-12-03T16:19:40.746Z,-0.37
2022-12-03T16:22:17.208Z,-0.37
2022-12-03T16:24:52.522Z,-0.38
2022-12-03T16:27:26.001Z,-0.44
2022-12-03T16:30:01.515Z,-0.34
2022-12-03T16:32:31.784Z,-0.40
2022-12-03T16:35:07.150Z,-0.44
2022-12-03T16:37:37.379Z,-0.32
2022-12-03T16:40:12.079Z,-0.32
2022-12-03T16:42:42.336Z,-0.30
2022-12-03T16:45:33.874Z,-0.34
2022-12-03T16:48:04.584Z,-0.31
2022-12-03T16:50:38.426Z,-0.32
2022-12-03T16:53:10.515Z,-0.31
2022-12-03T16:55:49.148Z,-0.42
2022-12-03T16:58:21.861Z,-0.44
2022-12-03T17:01:00.742Z,-0.34
2022-12-03T17:03:35.885Z,-0.36
2022-12-03T17:06:07.803Z,-0.34
2022-12-03T17:08:44.368Z,-0.34
2022-12-03T17:11:20.883Z,-0.38
2022-12-03T17:13:51.305Z,-0.46
2022-12-03T17:16:21.940Z,-0.48
2022-12-03T17:18:52.188Z,-0.45
2022-12-03T17:21:30.797Z,-0.41
2022-12-03T17:24:03.745Z,-0.38
2022-12-03T17:26:48.027Z,-0.40
2022-12-03T17:29:22.392Z,-0.34
2022-12-03T17:31:53.955Z,-0.28
2022-12-03T17:34:26.186Z,-0.28
2022-12-03T17:37:00.317Z,-0.30
2022-12-03T17:39:30.647Z,-0.40
2022-12-03T17:42:08.059Z,-0.34
2022-12-03T17:44:48.994Z,-0.30
2022-12-03T17:47:27.706Z,-0.36
2022-12-03T17:49:58.027Z,-0.30
2022-12-03T17:52:28.618Z,-0.25
2022-12-03T17:55:21.128Z,-0.23
2022-12-03T17:57:58.562Z,-0.28
2022-12-03T18:00:30.095Z,-0.30
2022-12-03T18:03:00.957Z,-0.26
2022-12-03T18:05:37.791Z,-0.25
2022-12-03T18:08:09.403Z,-0.21
2022-12-03T18:10:48.729Z,-0.50
2022-12-03T18:13:24.453Z,-0.38
2022-12-03T18:15:54.817Z,-0.40
2022-12-03T18:18:27.492Z,-0.36
2022-12-03T18:21:09.708Z,-0.32
2022-12-03T18:23:58.450Z,-0.42
2022-12-03T18:26:38.814Z,-0.32
2022-12-03T18:29:37.532Z,-0.31
2022-12-03T18:32:28.765Z,-0.34
2022-12-03T18:35:03.236Z,-0.33
2022-12-03T18:37:39.455Z,-0.31
2022-12-03T18:40:39.774Z,-0.43
2022-12-03T18:46:45.089Z,-0.31
2022-12-03T18:49:35.841Z,-0.28
2022-12-03T18:52:29.210Z,-0.29
2022-12-03T18:55:57.432Z,-0.24
2022-12-03T19:02:03.298Z,-0.24
2022-12-03T19:08:21.375Z,-0.31
2022-12-03T19:13:45.955Z,-0.31
2022-12-03T19:16:24.227Z,-0.30
2022-12-03T19:19:43.864Z,-0.36
2022-12-03T19:22:54.566Z,-0.30
2022-12-03T19:25:31.793Z,-0.38
2022-12-03T19:28:19.877Z,-0.37
2022-12-03T19:31:32.677Z,-0.28
2022-12-03T19:34:06.043Z,-0.30
2022-12-03T19:36:47.867Z,-0.31
2022-12-03T19:39:58.550Z,-0.32
2022-12-03T19:42:36.901Z,-0.28
2022-12-03T19:45:13.456Z,-0.31
2022-12-03T19:47:49.057Z,-0.37
2022-12-03T19:50:25.491Z,-0.33
2022-12-03T19:53:09.013Z,-0.31
2022-12-03T19:56:24.550Z,-0.32
2022-12-03T19:59:03.785Z,-0.41
2022-12-03T20:01:49.699Z,-0.38
2022-12-03T20:04:31.599Z,-0.35
2022-12-03T20:07:33.501Z,-0.28
2022-12-03T20:10:18.060Z,-0.34
2022-12-03T20:13:09.963Z,-0.34
2022-12-03T20:16:22.673Z,-0.33
2022-12-03T20:19:41.667Z,-0.32
2022-12-03T20:22:22.797Z,-0.33
2022-12-03T20:25:16.755Z,-0.38
2022-12-03T20:28:13.880Z,-0.33
2022-12-03T20:31:40.536Z,-0.31
2022-12-03T20:34:22.901Z,-0.37
2022-12-03T20:37:44.220Z,-0.31
2022-12-03T20:41:10.568Z,-0.35
2022-12-03T20:44:25.806Z,-0.39
2022-12-03T20:47:23.795Z,-0.36
2022-12-03T20:50:23.631Z,-0.32
2022-12-03T20:53:27.439Z,-0.34
2022-12-03T20:59:23.560Z,-0.35
2022-12-03T21:01:55.618Z,-0.31
2022-12-03T21:04:33.073Z,-0.25
2022-12-03T21:07:23.452Z,-0.27
2022-12-03T21:13:15.224Z,-0.24
2022-12-03T21:16:07.594Z,-0.30
2022-12-03T21:18:41.957Z,-0.30
2022-12-03T21:21:19.215Z,-0.26
2022-12-03T21:23:54.130Z,-0.34
2022-12-03T21:26:34.252Z,-0.29
2022-12-03T21:29:14.598Z,-0.27
2022-12-03T21:31:44.810Z,-0.31
2022-12-03T21:34:17.873Z,-0.27
2022-12-03T21:36:50.492Z,-0.45
2022-12-03T21:39:21.666Z,-0.31
2022-12-03T21:42:18.629Z,-0.23
2022-12-03T21:44:43.261Z,-0.20
2022-12-03T21:47:14.488Z,-0.18
2022-12-03T21:49:45.348Z,-0.22
2022-12-03T21:52:17.910Z,-0.20
2022-12-03T21:54:49.849Z,-0.18
2022-12-03T21:57:19.941Z,-0.27
2022-12-03T21:59:50.937Z,-0.26
2022-12-03T22:02:21.080Z,-0.28
2022-12-03T22:04:53.432Z,-0.26
2022-12-03T22:07:26.887Z,-0.26
2022-12-03T22:09:59.135Z,-0.22
2022-12-03T22:12:29.565Z,-0.28
2022-12-03T22:14:59.969Z,-0.25
2022-12-03T22:17:30.412Z,-0.25
2022-12-03T22:20:00.803Z,-0.24
2022-12-03T22:22:33.448Z,-0.21
2022-12-03T22:25:03.974Z,-0.24
2022-12-03T22:27:34.589Z,-0.31
2022-12-03T22:30:06.637Z,-0.33
2022-12-03T22:32:37.169Z,-0.31
2022-12-03T22:35:09.120Z,-0.32
2022-12-03T22:37:43.037Z,-0.25
2022-12-03T22:40:17.725Z,-0.25
2022-12-03T22:42:50.900Z,-0.27
2022-12-03T22:45:22.382Z,-0.27
2022-12-03T22:47:52.578Z,-0.27
2022-12-03T22:50:23.414Z,-0.23
2022-12-03T22:52:56.392Z,-0.23
2022-12-03T22:55:26.920Z,-0.21
2022-12-03T22:57:56.980Z,-0.20
2022-12-03T23:00:33.494Z,-0.21
2022-12-03T23:03:04.407Z,-0.23
2022-12-03T23:05:38.680Z,-0.22
2022-12-03T23:08:13.990Z,-0.16
2022-12-03T23:10:47.665Z,-0.17
2022-12-03T23:13:18.980Z,-0.20
2022-12-03T23:15:55.978Z,-0.19
2022-12-03T23:18:28.138Z,-0.25
2022-12-03T23:21:03.173Z,-0.19
2022-12-03T23:23:38.644Z,-0.19
2022-12-03T23:26:14.339Z,-0.25
2022-12-03T23:28:50.725Z,-0.25
2022-12-03T23:31:28.806Z,-0.31
2022-12-03T23:34:09.510Z,-0.27
2022-12-03T23:36:39.861Z,-0.25
2022-12-03T23:39:12.385Z,-0.27
2022-12-03T23:41:42.671Z,-0.26
2022-12-03T23:44:12.828Z,-0.23
2022-12-03T23:46:44.348Z,-0.36
2022-12-03T23:49:14.414Z,-0.28
2022-12-03T23:51:44.708Z,-0.22
2022-12-03T23:54:17.227Z,-0.21
2022-12-03T23:56:47.495Z,-0.18
2022-12-03T23:59:17.504Z,-0.18
